Terminal Aerodrome Forecast
Issued by NWS

Home | Current Version | Previous Version | Text Only | Print | Product List | Glossary On
Versions: 1 2 3 4 5 6 7 8 9 10 11 12 13 14 15 16 17 18 19 20 21 22 23 24 25 26
982
FTUS45 KREV 202337
TAFTVL
TAF
KTVL 202337Z 2100/2124 19009KT 6SM -SHRA BKN035 OVC050
      TEMPO 2100/2103 4SM -RA OVC030
     FM210300 19005KT P6SM BKN040 OVC120
      TEMPO 2104/2108 1SM BR BKN002
     FM211800 19009KT P6SM SCT045 BKN200=

USA.gov is the U.S. government's official web portal to all federal, state and local government web resources and services.